createdAt,value
2022-10-24T00:02:22.884Z,101313.22
2022-10-24T00:04:49.748Z,101327.59
2022-10-24T00:07:16.541Z,101329.66
2022-10-24T00:09:42.994Z,101326.47
2022-10-24T00:12:09.551Z,101341.63
2022-10-24T00:14:36.531Z,101338.00
2022-10-24T00:17:04.035Z,101321.84
2022-10-24T00:19:30.484Z,101318.09
2022-10-24T00:21:56.927Z,101324.53
2022-10-24T00:24:25.199Z,101323.75
2022-10-24T00:26:52.578Z,101322.88
2022-10-24T00:29:19.428Z,101313.94
2022-10-24T00:31:46.006Z,101320.94
2022-10-24T00:34:12.531Z,101318.78
2022-10-24T00:36:38.992Z,101313.94
2022-10-24T00:39:05.496Z,101322.53
2022-10-24T00:41:38.872Z,101323.53
2022-10-24T00:44:33.164Z,101317.88
2022-10-24T00:47:15.886Z,101311.00
2022-10-24T00:49:53.256Z,101312.34
2022-10-24T00:52:26.144Z,101298.69
2022-10-24T00:54:55.024Z,101298.22
2022-10-24T00:57:27.392Z,101303.19
2022-10-24T00:59:59.450Z,101295.03
2022-10-24T01:02:26.915Z,101296.16
2022-10-24T01:04:56.463Z,101297.75
2022-10-24T01:08:06.328Z,101289.72
2022-10-24T01:10:36.950Z,101289.84
2022-10-24T01:13:48.908Z,101293.56
2022-10-24T01:16:23.190Z,101290.53
2022-10-24T01:19:04.175Z,101298.44
2022-10-24T01:21:37.586Z,101301.81
2022-10-24T01:24:09.017Z,101283.06
2022-10-24T01:27:12.339Z,101274.72
2022-10-24T01:29:45.024Z,101280.38
2022-10-24T01:32:29.097Z,101272.22
2022-10-24T01:35:35.726Z,101261.84
2022-10-24T01:38:17.279Z,101259.34
2022-10-24T01:40:52.814Z,101258.56
2022-10-24T01:43:24.979Z,101253.38
2022-10-24T01:45:56.796Z,101258.78
2022-10-24T01:48:26.093Z,101248.50
2022-10-24T01:50:55.870Z,101246.69
2022-10-24T01:53:25.113Z,101249.06
2022-10-24T01:55:52.484Z,101244.44
2022-10-24T01:58:18.938Z,101242.78
2022-10-24T02:00:48.486Z,101236.31
2022-10-24T02:03:23.954Z,101232.69
2022-10-24T02:05:56.232Z,101226.50
2022-10-24T02:08:30.141Z,101228.97
2022-10-24T02:11:01.890Z,101228.84
2022-10-24T02:13:39.176Z,101236.09
2022-10-24T02:16:06.542Z,101231.78
2022-10-24T02:18:34.193Z,101228.16
2022-10-24T02:21:14.233Z,101221.94
2022-10-24T02:23:46.795Z,101215.97
2022-10-24T02:26:23.395Z,101211.56
2022-10-24T02:28:54.700Z,101206.03
2022-10-24T02:31:23.657Z,101203.34
2022-10-24T02:33:53.168Z,101198.16
2022-10-24T02:36:27.252Z,101198.72
2022-10-24T02:38:56.178Z,101201.44
2022-10-24T02:41:27.825Z,101200.75
2022-10-24T02:43:56.788Z,101197.47
2022-10-24T02:46:24.714Z,101190.47
2022-10-24T02:48:56.237Z,101206.97
2022-10-24T02:51:27.403Z,101204.47
2022-10-24T02:53:53.744Z,101197.47
2022-10-24T02:56:20.185Z,101199.94
2022-10-24T02:58:46.658Z,101207.84
2022-10-24T03:01:13.217Z,101206.28
2022-10-24T03:03:39.787Z,101210.78
2022-10-24T03:06:06.623Z,101203.56
2022-10-24T03:08:33.257Z,101199.94
2022-10-24T03:11:00.082Z,101185.94
2022-10-24T03:13:26.568Z,101183.00
2022-10-24T03:15:53.020Z,101179.63
2022-10-24T03:18:19.461Z,101177.81
2022-10-24T03:20:46.464Z,101178.38
2022-10-24T03:23:12.931Z,101174.44
2022-10-24T03:25:39.353Z,101168.78
2022-10-24T03:28:05.787Z,101165.84
2022-10-24T03:30:32.206Z,101181.66
2022-10-24T03:32:58.664Z,101167.69
2022-10-24T03:35:25.166Z,101179.50
2022-10-24T03:37:51.614Z,101185.94
2022-10-24T03:40:18.155Z,101178.72
2022-10-24T03:42:44.900Z,101183.19
2022-10-24T03:45:11.464Z,101199.59
2022-10-24T03:47:38.024Z,101199.47
2022-10-24T03:50:05.784Z,101205.00
2022-10-24T03:52:32.416Z,101209.41
2022-10-24T03:54:58.942Z,101203.72
2022-10-24T03:57:26.182Z,101204.22
2022-10-24T03:59:52.619Z,101208.09
2022-10-24T04:02:19.145Z,101207.75
2022-10-24T04:04:45.567Z,101208.09
2022-10-24T04:07:12.016Z,101213.25
2022-10-24T04:09:38.491Z,101203.53
2022-10-24T04:12:05.172Z,101204.38
2022-10-24T04:14:31.634Z,101203.50
2022-10-24T04:16:58.080Z,101205.28
2022-10-24T04:19:24.520Z,101197.03
2022-10-24T04:21:50.993Z,101201.78
2022-10-24T04:24:17.698Z,101220.69
2022-10-24T04:26:44.243Z,101218.34
2022-10-24T04:29:10.993Z,101225.41
2022-10-24T04:31:37.438Z,101219.31
2022-10-24T04:34:05.499Z,101216.72
2022-10-24T04:36:33.098Z,101214.59
2022-10-24T04:41:27.223Z,101201.06
2022-10-24T04:43:53.741Z,101202.84
2022-10-24T04:46:20.181Z,101201.84
2022-10-24T04:48:46.732Z,101207.91
2022-10-24T04:51:14.122Z,101192.25
2022-10-24T04:53:42.632Z,101213.00
2022-10-24T04:56:09.079Z,101208.94
2022-10-24T04:58:35.525Z,101197.13
2022-10-24T05:01:02.146Z,101190.59
2022-10-24T05:03:28.755Z,101188.34
2022-10-24T05:05:55.241Z,101181.09
2022-10-24T05:08:21.744Z,101176.59
2022-10-24T05:10:48.191Z,101178.84
2022-10-24T05:13:14.622Z,101181.97
2022-10-24T05:15:41.758Z,101187.28
2022-10-24T05:18:08.213Z,101177.47
2022-10-24T05:20:34.971Z,101170.69
2022-10-24T05:23:01.437Z,101172.91
2022-10-24T05:25:27.970Z,101176.28
2022-10-24T05:27:54.483Z,101161.97
2022-10-24T05:30:21.381Z,101158.22
2022-10-24T05:32:48.292Z,101155.06
2022-10-24T05:35:15.065Z,101162.22
2022-10-24T05:37:42.304Z,101164.72
2022-10-24T05:40:10.620Z,101159.72
2022-10-24T05:42:38.613Z,101153.81
2022-10-24T05:45:07.158Z,101152.50
2022-10-24T05:47:33.672Z,101159.00
2022-10-24T05:50:00.061Z,101158.72
2022-10-24T05:52:26.649Z,101168.84
2022-10-24T05:55:06.745Z,101167.44
2022-10-24T05:57:34.128Z,101154.66
2022-10-24T06:00:00.861Z,101156.97
2022-10-24T06:02:27.565Z,101154.66
2022-10-24T06:04:56.041Z,101160.06
2022-10-24T06:07:22.841Z,101169.09
2022-10-24T06:09:49.301Z,101172.63
2022-10-24T06:12:15.997Z,101179.06
2022-10-24T06:14:42.493Z,101176.59
2022-10-24T06:17:14.862Z,101181.78
2022-10-24T06:19:41.489Z,101179.91
2022-10-24T06:22:09.528Z,101175.97
2022-10-24T06:24:37.712Z,101163.13
2022-10-24T06:27:05.929Z,101170.06
2022-10-24T06:29:32.741Z,101163.78
2022-10-24T06:31:59.521Z,101165.84
2022-10-24T06:34:26.115Z,101166.53
2022-10-24T06:36:52.649Z,101169.25
2022-10-24T06:39:19.373Z,101176.22
2022-10-24T06:41:46.009Z,101179.84
2022-10-24T06:44:12.504Z,101179.00
2022-10-24T06:46:38.921Z,101182.34
2022-10-24T06:49:05.391Z,101183.72
2022-10-24T06:51:31.860Z,101190.91
2022-10-24T06:54:00.231Z,101192.44
2022-10-24T06:56:26.787Z,101186.41
2022-10-24T06:58:53.236Z,101194.63
2022-10-24T07:01:23.416Z,101192.97
2022-10-24T07:03:50.694Z,101189.50
2022-10-24T07:06:26.518Z,101173.31
2022-10-24T07:08:56.160Z,101168.97
2022-10-24T07:11:23.389Z,101165.34
2022-10-24T07:13:49.929Z,101183.91
2022-10-24T07:16:16.591Z,101187.44
2022-10-24T07:18:43.955Z,101179.63
2022-10-24T07:21:31.317Z,101197.56
2022-10-24T07:23:58.363Z,101205.38
2022-10-24T07:26:26.467Z,101208.44
2022-10-24T07:28:58.554Z,101207.75
2022-10-24T07:31:28.637Z,101209.91
2022-10-24T07:33:55.976Z,101214.63
2022-10-24T07:36:25.075Z,101199.41
2022-10-24T07:38:54.005Z,101203.13
2022-10-24T07:41:20.804Z,101218.59
2022-10-24T07:43:47.561Z,101214.19
2022-10-24T07:46:16.292Z,101211.25
2022-10-24T07:48:42.816Z,101210.13
2022-10-24T07:51:11.687Z,101204.59
2022-10-24T07:53:38.651Z,101203.69
2022-10-24T07:56:09.345Z,101214.28
2022-10-24T07:58:36.933Z,101205.13
2022-10-24T08:01:18.694Z,101208.28
2022-10-24T08:03:45.996Z,101196.94
2022-10-24T08:06:16.280Z,101200.78
2022-10-24T08:08:43.209Z,101207.81
2022-10-24T08:11:12.464Z,101194.94
2022-10-24T08:13:39.247Z,101201.63
2022-10-24T08:16:07.559Z,101201.13
2022-10-24T08:18:38.715Z,101208.19
2022-10-24T08:21:08.738Z,101194.66
2022-10-24T08:23:37.298Z,101195.25
2022-10-24T08:26:07.669Z,101199.22
2022-10-24T08:28:34.245Z,101180.94
2022-10-24T08:31:03.918Z,101177.09
2022-10-24T08:37:17.396Z,101171.19
2022-10-24T08:39:47.871Z,101169.72
2022-10-24T08:42:45.969Z,101159.69
2022-10-24T08:45:25.571Z,101164.97
2022-10-24T08:48:17.492Z,101163.59
2022-10-24T08:50:49.278Z,101152.88
2022-10-24T08:53:28.989Z,101148.88
2022-10-24T08:55:59.604Z,101148.66
2022-10-24T08:58:46.590Z,101161.06
2022-10-24T09:01:32.718Z,101156.28
2022-10-24T09:04:01.501Z,101141.94
2022-10-24T09:06:31.480Z,101153.44
2022-10-24T09:09:02.292Z,101165.88
2022-10-24T09:11:36.763Z,101156.84
2022-10-24T09:14:12.313Z,101164.25
2022-10-24T09:16:41.476Z,101160.22
2022-10-24T09:19:13.603Z,101148.19
2022-10-24T09:21:42.289Z,101153.19
2022-10-24T09:24:28.678Z,101154.41
2022-10-24T09:26:55.392Z,101157.41
2022-10-24T09:29:21.881Z,101159.06
2022-10-24T09:31:49.837Z,101149.34
2022-10-24T09:34:17.189Z,101146.75
2022-10-24T09:36:44.568Z,101165.00
2022-10-24T09:39:29.091Z,101156.69
2022-10-24T09:41:56.514Z,101156.31
2022-10-24T09:44:37.804Z,101152.31
2022-10-24T09:47:06.611Z,101147.28
2022-10-24T09:49:36.752Z,101150.25
2022-10-24T09:52:24.388Z,101143.59
2022-10-24T09:55:25.430Z,101139.38
2022-10-24T09:57:55.093Z,101142.00
2022-10-24T10:00:29.513Z,101127.94
2022-10-24T10:03:06.510Z,101127.13
2022-10-24T10:05:45.784Z,101132.56
2022-10-24T10:08:19.941Z,101125.72
2022-10-24T10:11:01.398Z,101124.47
2022-10-24T10:13:28.708Z,101120.06
2022-10-24T10:16:01.026Z,101113.69
2022-10-24T10:18:35.379Z,101122.78
2022-10-24T10:21:22.038Z,101126.50
2022-10-24T10:23:53.786Z,101128.00
2022-10-24T10:26:24.899Z,101123.84
2022-10-24T10:28:54.375Z,101120.38
2022-10-24T10:31:46.627Z,101117.81
2022-10-24T10:34:47.112Z,101111.41
2022-10-24T10:37:33.287Z,101106.38
2022-10-24T10:40:24.432Z,101104.56
2022-10-24T10:42:57.018Z,101111.06
2022-10-24T10:45:26.368Z,101128.19
2022-10-24T10:48:15.770Z,101117.50
2022-10-24T10:50:57.308Z,101114.22
2022-10-24T10:53:33.069Z,101118.78
2022-10-24T10:56:22.560Z,101110.47
2022-10-24T10:59:12.357Z,101114.94
2022-10-24T11:02:15.068Z,101110.75
2022-10-24T11:05:06.542Z,101100.47
2022-10-24T11:08:01.817Z,101083.91
2022-10-24T11:10:36.865Z,101076.28
2022-10-24T11:13:09.954Z,101078.22
2022-10-24T11:15:42.356Z,101066.56
2022-10-24T11:18:35.439Z,101063.09
2022-10-24T11:21:09.398Z,101061.03
2022-10-24T11:23:50.268Z,101052.34
2022-10-24T11:26:16.568Z,101059.81
2022-10-24T11:29:20.560Z,101049.00
2022-10-24T11:31:52.615Z,101057.81
2022-10-24T11:34:21.961Z,101052.63
2022-10-24T11:36:54.815Z,101038.38
2022-10-24T11:39:42.597Z,101028.66
2022-10-24T11:42:21.219Z,101031.47
2022-10-24T11:44:53.666Z,101030.06
2022-10-24T11:47:26.125Z,101018.00
2022-10-24T11:50:07.197Z,101021.56
2022-10-24T11:52:40.142Z,101014.56
2022-10-24T11:55:11.612Z,101001.88
2022-10-24T11:57:39.852Z,101004.06
2022-10-24T12:00:06.779Z,100994.88
2022-10-24T12:02:58.162Z,100981.97
2022-10-24T12:06:10.181Z,100979.75
2022-10-24T12:08:45.219Z,100970.78
2022-10-24T12:11:33.113Z,100967.28
2022-10-24T12:14:21.312Z,100952.69
2022-10-24T12:17:06.073Z,100957.69
2022-10-24T12:19:33.522Z,100949.81
2022-10-24T12:22:04.509Z,100953.53
2022-10-24T12:24:36.346Z,100946.94
2022-10-24T12:27:06.897Z,100952.34
2022-10-24T12:29:36.178Z,100941.69
2022-10-24T12:32:30.227Z,100938.38
2022-10-24T12:35:25.306Z,100938.00
2022-10-24T12:37:46.918Z,100927.03
2022-10-24T12:40:47.547Z,100930.63
2022-10-24T12:43:28.033Z,100923.72
2022-10-24T12:45:56.045Z,100912.59
2022-10-24T12:48:36.195Z,100905.31
2022-10-24T12:51:04.459Z,100907.22
2022-10-24T12:53:35.296Z,100904.97
2022-10-24T12:56:07.406Z,100903.50
2022-10-24T12:58:39.704Z,100896.94
2022-10-24T13:01:08.514Z,100900.13
2022-10-24T13:04:03.037Z,100894.47
2022-10-24T13:06:46.483Z,100897.75
2022-10-24T13:10:01.409Z,100891.63
2022-10-24T13:12:43.141Z,100879.69
2022-10-24T13:15:39.846Z,100885.91
2022-10-24T13:18:15.252Z,100877.84
2022-10-24T13:20:46.651Z,100869.13
2022-10-24T13:23:25.542Z,100866.06
2022-10-24T13:25:57.125Z,100857.72
2022-10-24T13:28:23.462Z,100845.13
2022-10-24T13:30:58.691Z,100848.94
2022-10-24T13:33:31.984Z,100839.31
2022-10-24T13:36:17.898Z,100838.25
2022-10-24T13:38:56.816Z,100833.59
2022-10-24T13:41:42.003Z,100824.94
2022-10-24T13:44:37.619Z,100818.31
2022-10-24T13:47:10.106Z,100830.03
2022-10-24T13:49:41.732Z,100822.44
2022-10-24T13:52:16.962Z,100827.25
2022-10-24T13:54:48.289Z,100821.84
2022-10-24T13:57:33.957Z,100816.88
2022-10-24T14:00:05.162Z,100822.69
2022-10-24T14:02:38.479Z,100822.09
2022-10-24T14:05:05.492Z,100821.00
2022-10-24T14:07:33.796Z,100817.66
2022-10-24T14:10:06.727Z,100810.09
2022-10-24T14:12:36.330Z,100827.75
2022-10-24T14:15:04.241Z,100821.59
2022-10-24T14:17:34.546Z,100818.69
2022-10-24T14:20:09.602Z,100823.69
2022-10-24T14:22:40.918Z,100831.63
2022-10-24T14:25:24.140Z,100829.78
2022-10-24T14:27:52.329Z,100830.44
2022-10-24T14:30:22.110Z,100828.69
2022-10-24T14:32:49.069Z,100822.00
2022-10-24T14:35:16.525Z,100816.66
2022-10-24T14:37:44.048Z,100815.00
2022-10-24T14:40:18.546Z,100809.59
2022-10-24T14:42:46.455Z,100807.94
2022-10-24T14:45:30.952Z,100809.59
2022-10-24T14:47:59.267Z,100806.03
2022-10-24T14:50:43.581Z,100807.53
2022-10-24T14:53:27.598Z,100795.00
2022-10-24T14:55:57.983Z,100791.41
2022-10-24T14:58:30.344Z,100786.06
2022-10-24T15:00:58.421Z,100792.72
2022-10-24T15:03:26.772Z,100792.69
2022-10-24T15:05:55.016Z,100797.75
2022-10-24T15:09:02.393Z,100804.66
2022-10-24T15:11:37.887Z,100805.34
2022-10-24T15:14:07.616Z,100801.75
2022-10-24T15:16:40.703Z,100790.31
2022-10-24T15:19:14.637Z,100795.56
2022-10-24T15:21:46.640Z,100789.34
2022-10-24T15:24:24.827Z,100793.44
2022-10-24T15:26:51.734Z,100795.94
2022-10-24T15:29:21.639Z,100802.78
2022-10-24T15:31:50.422Z,100796.56
2022-10-24T15:34:23.453Z,100797.22
2022-10-24T15:36:52.544Z,100792.63
2022-10-24T15:39:24.591Z,100787.13
2022-10-24T15:41:52.300Z,100785.03
2022-10-24T15:44:21.849Z,100781.31
2022-10-24T15:46:48.837Z,100781.25
2022-10-24T15:49:15.579Z,100791.38
2022-10-24T15:51:48.936Z,100786.69
2022-10-24T15:54:19.606Z,100784.59
2022-10-24T15:56:46.209Z,100796.47
2022-10-24T15:59:12.695Z,100800.53
2022-10-24T16:02:13.916Z,100797.06
2022-10-24T16:04:40.572Z,100797.84
2022-10-24T16:07:07.044Z,100786.34
2022-10-24T16:09:33.477Z,100784.13
2022-10-24T16:11:59.934Z,100789.72
2022-10-24T16:14:26.580Z,100788.06
2022-10-24T16:16:54.990Z,100778.16
2022-10-24T16:19:21.848Z,100786.53
2022-10-24T16:21:48.639Z,100784.59
2022-10-24T16:24:15.103Z,100778.25
2022-10-24T16:26:41.634Z,100775.47
2022-10-24T16:29:08.101Z,100765.72
2022-10-24T16:31:34.678Z,100763.78
2022-10-24T16:34:01.336Z,100762.88
2022-10-24T16:36:28.711Z,100761.91
2022-10-24T16:38:55.513Z,100761.53
2022-10-24T16:41:24.606Z,100769.91
2022-10-24T16:43:54.598Z,100770.44
2022-10-24T16:46:22.129Z,100772.75
2022-10-24T16:48:49.507Z,100770.97
2022-10-24T16:51:22.341Z,100772.44
2022-10-24T16:53:49.142Z,100766.00
2022-10-24T16:56:16.178Z,100773.44
2022-10-24T16:58:43.372Z,100761.06
2022-10-24T17:01:13.403Z,100759.78
2022-10-24T17:03:42.181Z,100767.25
2022-10-24T17:06:09.162Z,100769.63
2022-10-24T17:08:35.743Z,100769.41
2022-10-24T17:11:03.239Z,100771.59
2022-10-24T17:13:29.959Z,100767.88
2022-10-24T17:15:56.715Z,100771.13
2022-10-24T17:18:25.332Z,100776.22
2022-10-24T17:20:54.446Z,100787.41
2022-10-24T17:23:22.866Z,100784.56
2022-10-24T17:25:49.339Z,100780.47
2022-10-24T17:28:16.205Z,100776.53
2022-10-24T17:30:43.472Z,100785.19
2022-10-24T17:33:11.229Z,100784.44
2022-10-24T17:35:45.142Z,100792.56
2022-10-24T17:38:26.069Z,100803.16
2022-10-24T17:40:54.541Z,100796.91
2022-10-24T17:43:23.655Z,100797.41
2022-10-24T17:45:51.075Z,100793.53
2022-10-24T17:48:18.446Z,100801.56
2022-10-24T17:50:45.558Z,100798.72
2022-10-24T17:53:17.621Z,100801.16
2022-10-24T17:55:46.633Z,100799.53
2022-10-24T17:58:14.658Z,100799.53
2022-10-24T18:00:41.445Z,100806.72
2022-10-24T18:03:11.052Z,100804.91
2022-10-24T18:05:38.781Z,100814.38
2022-10-24T18:08:07.901Z,100815.19
2022-10-24T18:10:36.207Z,100808.91
2022-10-24T18:13:02.673Z,100801.66
2022-10-24T18:15:29.161Z,100805.72
2022-10-24T18:17:55.618Z,100812.38
2022-10-24T18:20:22.072Z,100810.25
2022-10-24T18:22:48.915Z,100797.69
2022-10-24T18:25:20.189Z,100798.00
2022-10-24T18:27:49.873Z,100808.81
2022-10-24T18:30:16.689Z,100815.66
2022-10-24T18:32:44.186Z,100824.34
2022-10-24T18:35:10.931Z,100828.94
2022-10-24T18:37:37.654Z,100830.81
2022-10-24T18:40:05.942Z,100832.59
2022-10-24T18:42:41.449Z,100809.59
2022-10-24T18:45:11.496Z,100799.91
2022-10-24T18:47:38.131Z,100798.84
2022-10-24T18:50:04.976Z,100809.19
2022-10-24T18:52:45.838Z,100818.78
2022-10-24T18:55:21.463Z,100810.16
2022-10-24T18:57:49.225Z,100808.34
2022-10-24T19:00:27.333Z,100810.97
2022-10-24T19:03:00.161Z,100813.56
2022-10-24T19:05:47.900Z,100825.97
2022-10-24T19:08:30.075Z,100827.78
2022-10-24T19:10:56.912Z,100834.69
2022-10-24T19:13:27.230Z,100828.31
2022-10-24T19:16:00.913Z,100826.53
2022-10-24T19:18:31.305Z,100831.38
2022-10-24T19:20:58.957Z,100828.13
2022-10-24T19:27:12.247Z,100821.31
2022-10-24T19:29:38.666Z,100824.91
2022-10-24T19:32:05.301Z,100835.50
2022-10-24T19:34:31.769Z,100829.75
2022-10-24T19:36:58.204Z,100831.72
2022-10-24T19:39:24.755Z,100833.44
2022-10-24T19:41:51.215Z,100820.66
2022-10-24T19:44:17.711Z,100815.84
2022-10-24T19:46:44.132Z,100819.25
2022-10-24T19:49:10.672Z,100829.66
2022-10-24T19:51:37.097Z,100826.88
2022-10-24T19:54:03.649Z,100825.19
2022-10-24T19:56:31.335Z,100816.09
2022-10-24T19:58:57.782Z,100817.38
2022-10-24T20:01:27.482Z,100818.88
2022-10-24T20:03:57.690Z,100820.78
2022-10-24T20:06:25.723Z,100820.78
2022-10-24T20:08:52.360Z,100828.75
2022-10-24T20:11:20.553Z,100843.16
2022-10-24T20:13:47.600Z,100843.41
2022-10-24T20:16:14.246Z,100848.25
2022-10-24T20:18:42.968Z,100826.63
2022-10-24T20:21:11.963Z,100819.16
2022-10-24T20:23:40.569Z,100829.56
2022-10-24T20:26:13.284Z,100837.41
2022-10-24T20:28:45.412Z,100846.94
2022-10-24T20:31:22.491Z,100848.81
2022-10-24T20:33:49.828Z,100848.19
2022-10-24T20:36:16.342Z,100845.59
2022-10-24T20:38:42.778Z,100836.94
2022-10-24T20:41:09.221Z,100840.44
2022-10-24T20:43:35.771Z,100849.09
2022-10-24T20:46:06.487Z,100854.41
2022-10-24T20:48:33.782Z,100852.69
2022-10-24T20:51:14.286Z,100857.78
2022-10-24T20:53:41.799Z,100861.00
2022-10-24T20:56:17.561Z,100856.72
2022-10-24T20:58:44.876Z,100858.34
2022-10-24T21:01:11.299Z,100854.03
2022-10-24T21:03:38.273Z,100851.59
2022-10-24T21:06:13.570Z,100856.72
2022-10-24T21:08:40.018Z,100859.41
2022-10-24T21:11:07.223Z,100862.84
2022-10-24T21:13:33.934Z,100866.22
2022-10-24T21:16:02.100Z,100862.72
2022-10-24T21:18:28.509Z,100867.78
2022-10-24T21:21:41.595Z,100873.88
2022-10-24T21:24:12.222Z,100876.31
2022-10-24T21:26:38.977Z,100876.09
2022-10-24T21:29:31.630Z,100872.69
2022-10-24T21:31:52.828Z,100870.59
2022-10-24T21:34:20.069Z,100875.75
2022-10-24T21:36:46.542Z,100886.34
2022-10-24T21:39:15.365Z,100882.75
2022-10-24T21:41:42.120Z,100894.78
2022-10-24T21:44:08.642Z,100898.00
2022-10-24T21:46:35.062Z,100891.16
2022-10-24T21:49:01.516Z,100905.03
2022-10-24T21:51:34.625Z,100888.53
2022-10-24T21:54:14.121Z,100884.84
2022-10-24T21:56:40.610Z,100889.97
2022-10-24T21:59:12.686Z,100886.09
2022-10-24T22:01:55.325Z,100890.06
2022-10-24T22:04:21.941Z,100892.47
2022-10-24T22:06:48.846Z,100895.38
2022-10-24T22:09:52.249Z,100896.69
2022-10-24T22:12:31.489Z,100889.28
2022-10-24T22:15:55.203Z,100877.84
2022-10-24T22:18:23.132Z,100880.19
2022-10-24T22:20:50.091Z,100889.97
2022-10-24T22:23:16.587Z,100893.59
2022-10-24T22:25:43.107Z,100890.31
2022-10-24T22:28:09.569Z,100889.78
2022-10-24T22:30:37.583Z,100895.69
2022-10-24T22:33:05.017Z,100885.59
2022-10-24T22:35:32.063Z,100892.50
2022-10-24T22:37:58.852Z,100896.13
2022-10-24T22:40:31.044Z,100889.41
2022-10-24T22:42:57.944Z,100894.09
2022-10-24T22:45:24.786Z,100899.69
2022-10-24T22:47:56.995Z,100906.69
2022-10-24T22:50:53.883Z,100904.06
2022-10-24T22:53:24.936Z,100902.41
2022-10-24T22:55:58.781Z,100906.50
2022-10-24T22:58:25.526Z,100916.09
2022-10-24T23:00:58.664Z,100906.31
2022-10-24T23:03:50.928Z,100927.94
2022-10-24T23:06:23.014Z,100937.28
2022-10-24T23:08:49.418Z,100945.00
2022-10-24T23:11:16.114Z,100936.41
2022-10-24T23:13:42.892Z,100939.09
2022-10-24T23:16:35.951Z,100947.41
2022-10-24T23:19:14.980Z,100945.41
2022-10-24T23:21:52.988Z,100946.00
2022-10-24T23:24:19.652Z,100948.50
2022-10-24T23:27:11.147Z,100950.31
2022-10-24T23:29:41.724Z,100949.41
2022-10-24T23:32:20.189Z,100949.41
2022-10-24T23:34:47.183Z,100953.31
2022-10-24T23:37:31.968Z,100955.09
2022-10-24T23:40:00.617Z,100953.41
2022-10-24T23:42:27.312Z,100956.69
2022-10-24T23:44:54.104Z,100951.63
2022-10-24T23:47:20.474Z,100944.88
2022-10-24T23:50:00.865Z,100958.41
2022-10-24T23:52:37.157Z,100958.41
2022-10-24T23:55:04.163Z,100950.59
2022-10-24T23:57:30.813Z,100950.59
2022-10-24T23:59:57.242Z,100948.00
